Accueil
METAR-TAF:

METAR-TAF

Aéroports :

Culiacán, Mexique

latitude: 24-49N, longitude: 107-24W, altitude: 39 m

Observation

Le bulletin a été fait il y a 3 heures et 59 minutes, à 04:50 UTC
Vent calme
Température 22°C
Humidité 57%
Pression 1011 hPa
Visibilité: 16.1 km
Nuages fragmentés à une hauteur de 25000 ft

METAR: MMCL 200450Z 00000KT 10SM BKN250 22/13 A2986 RMK 8/004

Heure: 02:49 (08:49 UTC)

Prévision

Le bulletin a été fait il y a 4 heures et 17 minutes, à 04:32 UTC
Prévision valable du 20 à 06 UTC au 21 à 06 UTC
Vent kt de nord
Visibilité: 10 km
Nuages fragmentés à une hauteur de 25000 ft
A partir de 20 à 1800 UTC
Vent 15 kt de sud-ouest
Visibilité: 10 km
Nuages fragmentés à une hauteur de 25000 ft
A partir de 21 à 0400 UTC
Vent 5 kt de sud-ouest
Visibilité: 10 km
Nuages fragmentés à une hauteur de 25000 ft

TAF: MMCL 200432Z 2006/2106 00000KT P6SM BKN250 FM201800 23015KT P6SM BKN250 FM210400 23005KT P6SM BKN250

Observations et prévisions météorologiques de plus de 4000 aéroports (messages METAR et TAF).

Les stations disponibles sont représentées par des disques jaunes et rouges sur la carte.

Passer la souris dessus pour voir le nom de la station.

Cliquer dessus pour voir les observations et prévisions météorologiques.

Pour changer de carte: cliquez sur les boutons verts avec une croix noire pour zoomer, sur le bouton vert avec un tiret pour effectuer un zoom arrière, ou sur les flèches vertes pour les cartes adjacentes.


METAR-TAF: